Hauptseite
METAR-TAF:

METAR-TAF

Flughäfen :

Fliegerhorst Holzdorf

Holzdorf, Deutschland

Breite: 51-46N, Länge: 013-11E, Höhe: 79 m

Beobachtung

Neuester Wetterbericht von vor 1 Stunde und 5 Minuten, um 22:20 UTC
Wind 7 kt aus Südost
Temperatur 4°C
Luftfeuchtigkeit 87%
Luftdruck 1004 hPa
Sichtweite: 9000 m
Geschlossene Wolkendecke in der Höhe von 11000 ft

METAR: ETSH 122220Z 13007KT 9000 OVC110 04/02 Q1004 BLU

Zeit: 00:25 (23:25 UTC)

Prognose

Neuester Wetterbericht von vor 4 Stunden und 31 Minuten, um 18:54 UTC
Gültige Prognose vom 12 um 15 UTC bis 12 um 24 UTC
Wind 6 kt aus Süd/Südost
Sichtweite: 1930 m
Durchbrochene Bewölkung in der Höhe von 13000 ft
Durchbrochene Bewölkung in der Höhe von 20000 ft

TAF: ETSH 121854Z 1215/1224 16006KT 9999 NSW BKN130 BKN200 CANCEL 1930

Wetterbeobachtungen und Prognosen von mehr als 4000 Flughäfen (METAR und TAF Bericht).

Die verfügbaren Stationen werden durch gelbe und rote Markierungen auf der Karte dargestellt.

Führen Sie die Maus auf sie, um den Namen der Station zu sehen.

Darauf klicken, um die Beobachtung von Wetterbeobachtungen und Prognosen zu sehen.

Um die Karte zu ändern : klicken Sie auf den grünen Tasten mit einem schwarzen Kreuz Zum Vergrößern, auf den grünen Button mit einem Gedankenstrich zu verkleinern, oder auf die grünen Pfeile für benachbarte Karten.


METAR-TAF: